sensor_id;sensor_type;location;lat;lon;timestamp;P1;P2;P0
36513;PMS5003;74739;46.796;9.824;2024-02-26T00:02:02;1;1;
36513;PMS5003;74739;46.796;9.824;2024-02-26T00:04:29;1;1;
36513;PMS5003;74739;46.796;9.824;2024-02-26T00:06:56;1;1;
36513;PMS5003;74739;46.796;9.824;2024-02-26T00:09:24;1;1;
36513;PMS5003;74739;46.796;9.824;2024-02-26T00:11:51;2;2;
36513;PMS5003;74739;46.796;9.824;2024-02-26T00:14:17;1;1;
36513;PMS5003;74739;46.796;9.824;2024-02-26T00:16:45;0;0;
36513;PMS5003;74739;46.796;9.824;2024-02-26T00:19:12;1;1;
36513;PMS5003;74739;46.796;9.824;2024-02-26T00:21:40;1;1;
36513;PMS5003;74739;46.796;9.824;2024-02-26T00:24:06;0;0;
36513;PMS5003;74739;46.796;9.824;2024-02-26T00:26:33;1;1;
36513;PMS5003;74739;46.796;9.824;2024-02-26T00:29:00;1;1;
36513;PMS5003;74739;46.796;9.824;2024-02-26T00:31:27;1;1;
36513;PMS5003;74739;46.796;9.824;2024-02-26T00:33:54;0;0;
36513;PMS5003;74739;46.796;9.824;2024-02-26T00:36:21;6;6;
36513;PMS5003;74739;46.796;9.824;2024-02-26T00:38:49;3;3;
36513;PMS5003;74739;46.796;9.824;2024-02-26T00:41:16;1;1;
36513;PMS5003;74739;46.796;9.824;2024-02-26T00:43:44;2;2;
36513;PMS5003;74739;46.796;9.824;2024-02-26T00:46:11;1;1;
36513;PMS5003;74739;46.796;9.824;2024-02-26T00:48:38;1;1;
36513;PMS5003;74739;46.796;9.824;2024-02-26T00:51:05;1;1;
36513;PMS5003;74739;46.796;9.824;2024-02-26T00:53:32;2;1;
36513;PMS5003;74739;46.796;9.824;2024-02-26T00:55:59;1;0;
36513;PMS5003;74739;46.796;9.824;2024-02-26T00:58:26;0;0;
36513;PMS5003;74739;46.796;9.824;2024-02-26T01:00:53;1;1;
36513;PMS5003;74739;46.796;9.824;2024-02-26T01:03:21;2;2;
36513;PMS5003;74739;46.796;9.824;2024-02-26T01:05:48;2;1;
36513;PMS5003;74739;46.796;9.824;2024-02-26T01:08:16;1;1;
36513;PMS5003;74739;46.796;9.824;2024-02-26T01:10:49;0;0;
36513;PMS5003;74739;46.796;9.824;2024-02-26T01:13:17;1;1;
36513;PMS5003;74739;46.796;9.824;2024-02-26T01:15:45;2;2;
36513;PMS5003;74739;46.796;9.824;2024-02-26T01:18:14;0;0;
36513;PMS5003;74739;46.796;9.824;2024-02-26T01:20:42;0;0;
36513;PMS5003;74739;46.796;9.824;2024-02-26T01:23:10;0;0;
36513;PMS5003;74739;46.796;9.824;2024-02-26T01:25:38;0;0;
36513;PMS5003;74739;46.796;9.824;2024-02-26T01:28:07;0;0;
36513;PMS5003;74739;46.796;9.824;2024-02-26T01:30:35;1;1;
36513;PMS5003;74739;46.796;9.824;2024-02-26T01:33:03;1;1;
36513;PMS5003;74739;46.796;9.824;2024-02-26T01:35:32;0;0;
36513;PMS5003;74739;46.796;9.824;2024-02-26T01:38:00;0;0;
36513;PMS5003;74739;46.796;9.824;2024-02-26T01:40:28;1;1;
36513;PMS5003;74739;46.796;9.824;2024-02-26T01:43:01;0;0;
36513;PMS5003;74739;46.796;9.824;2024-02-26T01:45:30;0;0;
36513;PMS5003;74739;46.796;9.824;2024-02-26T01:47:58;0;0;
36513;PMS5003;74739;46.796;9.824;2024-02-26T01:50:26;0;0;
36513;PMS5003;74739;46.796;9.824;2024-02-26T01:52:55;0;0;
36513;PMS5003;74739;46.796;9.824;2024-02-26T01:55:24;0;0;
36513;PMS5003;74739;46.796;9.824;2024-02-26T01:57:54;0;0;
36513;PMS5003;74739;46.796;9.824;2024-02-26T02:00:23;1;1;
36513;PMS5003;74739;46.796;9.824;2024-02-26T02:02:52;1;1;
36513;PMS5003;74739;46.796;9.824;2024-02-26T02:05:21;1;1;
36513;PMS5003;74739;46.796;9.824;2024-02-26T02:07:50;4;3;
36513;PMS5003;74739;46.796;9.824;2024-02-26T02:10:19;3;2;
36513;PMS5003;74739;46.796;9.824;2024-02-26T02:12:47;1;1;
36513;PMS5003;74739;46.796;9.824;2024-02-26T02:15:15;2;2;
36513;PMS5003;74739;46.796;9.824;2024-02-26T02:17:44;2;2;
36513;PMS5003;74739;46.796;9.824;2024-02-26T02:20:15;1;1;
36513;PMS5003;74739;46.796;9.824;2024-02-26T02:22:44;2;2;
36513;PMS5003;74739;46.796;9.824;2024-02-26T02:25:13;2;2;
36513;PMS5003;74739;46.796;9.824;2024-02-26T02:27:41;16;16;
36513;PMS5003;74739;46.796;9.824;2024-02-26T02:30:10;8;8;
36513;PMS5003;74739;46.796;9.824;2024-02-26T02:32:39;3;3;
36513;PMS5003;74739;46.796;9.824;2024-02-26T02:35:08;2;2;
36513;PMS5003;74739;46.796;9.824;2024-02-26T02:37:35;0;0;
36513;PMS5003;74739;46.796;9.824;2024-02-26T02:40:03;1;1;
36513;PMS5003;74739;46.796;9.824;2024-02-26T02:42:32;1;1;
36513;PMS5003;74739;46.796;9.824;2024-02-26T02:45:00;0;0;
36513;PMS5003;74739;46.796;9.824;2024-02-26T02:47:27;0;0;
36513;PMS5003;74739;46.796;9.824;2024-02-26T02:49:54;1;0;
36513;PMS5003;74739;46.796;9.824;2024-02-26T02:52:22;0;0;
36513;PMS5003;74739;46.796;9.824;2024-02-26T02:54:49;1;0;
36513;PMS5003;74739;46.796;9.824;2024-02-26T02:57:17;1;1;
36513;PMS5003;74739;46.796;9.824;2024-02-26T02:59:44;0;0;
36513;PMS5003;74739;46.796;9.824;2024-02-26T03:02:13;0;0;
36513;PMS5003;74739;46.796;9.824;2024-02-26T03:04:40;3;3;
36513;PMS5003;74739;46.796;9.824;2024-02-26T03:07:07;2;1;
36513;PMS5003;74739;46.796;9.824;2024-02-26T03:09:34;7;7;
36513;PMS5003;74739;46.796;9.824;2024-02-26T03:12:01;6;6;
36513;PMS5003;74739;46.796;9.824;2024-02-26T03:14:28;7;7;
36513;PMS5003;74739;46.796;9.824;2024-02-26T03:16:55;12;12;
36513;PMS5003;74739;46.796;9.824;2024-02-26T03:19:22;12;12;
36513;PMS5003;74739;46.796;9.824;2024-02-26T03:21:49;12;12;
36513;PMS5003;74739;46.796;9.824;2024-02-26T03:24:16;7;7;
36513;PMS5003;74739;46.796;9.824;2024-02-26T03:26:43;0;0;
36513;PMS5003;74739;46.796;9.824;2024-02-26T03:29:10;0;0;
36513;PMS5003;74739;46.796;9.824;2024-02-26T03:31:37;1;1;
36513;PMS5003;74739;46.796;9.824;2024-02-26T03:34:04;1;1;
36513;PMS5003;74739;46.796;9.824;2024-02-26T03:36:31;0;0;
36513;PMS5003;74739;46.796;9.824;2024-02-26T03:38:58;0;0;
36513;PMS5003;74739;46.796;9.824;2024-02-26T03:41:25;0;0;
36513;PMS5003;74739;46.796;9.824;2024-02-26T03:43:52;0;0;
36513;PMS5003;74739;46.796;9.824;2024-02-26T03:46:19;1;1;
36513;PMS5003;74739;46.796;9.824;2024-02-26T03:48:46;1;1;
36513;PMS5003;74739;46.796;9.824;2024-02-26T03:51:13;0;0;
36513;PMS5003;74739;46.796;9.824;2024-02-26T03:53:40;5;5;
36513;PMS5003;74739;46.796;9.824;2024-02-26T03:56:07;1;1;
36513;PMS5003;74739;46.796;9.824;2024-02-26T03:58:34;0;0;
36513;PMS5003;74739;46.796;9.824;2024-02-26T04:01:01;0;0;
36513;PMS5003;74739;46.796;9.824;2024-02-26T04:03:28;1;1;
36513;PMS5003;74739;46.796;9.824;2024-02-26T04:05:55;1;1;
36513;PMS5003;74739;46.796;9.824;2024-02-26T04:08:22;1;1;
36513;PMS5003;74739;46.796;9.824;2024-02-26T04:10:50;2;2;
36513;PMS5003;74739;46.796;9.824;2024-02-26T04:13:17;0;0;
36513;PMS5003;74739;46.796;9.824;2024-02-26T04:15:45;1;1;
36513;PMS5003;74739;46.796;9.824;2024-02-26T04:18:12;2;2;
36513;PMS5003;74739;46.796;9.824;2024-02-26T04:20:39;0;0;
36513;PMS5003;74739;46.796;9.824;2024-02-26T04:23:06;5;5;
36513;PMS5003;74739;46.796;9.824;2024-02-26T04:25:33;1;1;
36513;PMS5003;74739;46.796;9.824;2024-02-26T04:28:00;0;0;
36513;PMS5003;74739;46.796;9.824;2024-02-26T04:30:27;0;0;
36513;PMS5003;74739;46.796;9.824;2024-02-26T04:32:54;0;0;
36513;PMS5003;74739;46.796;9.824;2024-02-26T04:35:21;0;0;
36513;PMS5003;74739;46.796;9.824;2024-02-26T04:37:48;0;0;
36513;PMS5003;74739;46.796;9.824;2024-02-26T04:40:15;0;0;
36513;PMS5003;74739;46.796;9.824;2024-02-26T04:42:42;2;2;
36513;PMS5003;74739;46.796;9.824;2024-02-26T04:45:09;7;7;
36513;PMS5003;74739;46.796;9.824;2024-02-26T04:47:36;5;5;
36513;PMS5003;74739;46.796;9.824;2024-02-26T04:50:03;0;0;
36513;PMS5003;74739;46.796;9.824;2024-02-26T04:52:31;11;10;
36513;PMS5003;74739;46.796;9.824;2024-02-26T04:54:58;3;3;
36513;PMS5003;74739;46.796;9.824;2024-02-26T04:57:25;2;2;
36513;PMS5003;74739;46.796;9.824;2024-02-26T04:59:52;5;5;
36513;PMS5003;74739;46.796;9.824;2024-02-26T05:02:19;1;1;
36513;PMS5003;74739;46.796;9.824;2024-02-26T05:04:46;3;2;
36513;PMS5003;74739;46.796;9.824;2024-02-26T05:07:13;0;0;
36513;PMS5003;74739;46.796;9.824;2024-02-26T05:09:40;0;0;
36513;PMS5003;74739;46.796;9.824;2024-02-26T05:12:07;1;0;
36513;PMS5003;74739;46.796;9.824;2024-02-26T05:14:34;1;1;
36513;PMS5003;74739;46.796;9.824;2024-02-26T05:17:01;5;2;
36513;PMS5003;74739;46.796;9.824;2024-02-26T05:19:28;2;2;
36513;PMS5003;74739;46.796;9.824;2024-02-26T05:21:55;5;5;
36513;PMS5003;74739;46.796;9.824;2024-02-26T05:24:22;1;1;
36513;PMS5003;74739;46.796;9.824;2024-02-26T05:26:49;0;0;
36513;PMS5003;74739;46.796;9.824;2024-02-26T05:29:16;1;1;
36513;PMS5003;74739;46.796;9.824;2024-02-26T05:31:44;0;0;
36513;PMS5003;74739;46.796;9.824;2024-02-26T05:34:11;1;1;
36513;PMS5003;74739;46.796;9.824;2024-02-26T05:36:38;0;0;
36513;PMS5003;74739;46.796;9.824;2024-02-26T05:39:05;1;1;
36513;PMS5003;74739;46.796;9.824;2024-02-26T05:41:32;0;0;
36513;PMS5003;74739;46.796;9.824;2024-02-26T05:43:59;0;0;
36513;PMS5003;74739;46.796;9.824;2024-02-26T05:46:26;1;1;
36513;PMS5003;74739;46.796;9.824;2024-02-26T05:48:53;0;0;
36513;PMS5003;74739;46.796;9.824;2024-02-26T05:51:20;0;0;
36513;PMS5003;74739;46.796;9.824;2024-02-26T05:53:47;0;0;
36513;PMS5003;74739;46.796;9.824;2024-02-26T05:56:14;0;0;
36513;PMS5003;74739;46.796;9.824;2024-02-26T05:58:41;1;0;
36513;PMS5003;74739;46.796;9.824;2024-02-26T06:01:08;0;0;
36513;PMS5003;74739;46.796;9.824;2024-02-26T06:03:35;1;1;
36513;PMS5003;74739;46.796;9.824;2024-02-26T06:06:03;0;0;
36513;PMS5003;74739;46.796;9.824;2024-02-26T06:08:30;1;1;
36513;PMS5003;74739;46.796;9.824;2024-02-26T06:10:57;2;2;
36513;PMS5003;74739;46.796;9.824;2024-02-26T06:13:24;2;2;
36513;PMS5003;74739;46.796;9.824;2024-02-26T06:15:51;1;1;
36513;PMS5003;74739;46.796;9.824;2024-02-26T06:18:18;5;5;
36513;PMS5003;74739;46.796;9.824;2024-02-26T06:20:45;2;2;
36513;PMS5003;74739;46.796;9.824;2024-02-26T06:23:12;1;1;
36513;PMS5003;74739;46.796;9.824;2024-02-26T06:25:40;0;0;
36513;PMS5003;74739;46.796;9.824;2024-02-26T06:28:07;5;5;
36513;PMS5003;74739;46.796;9.824;2024-02-26T06:30:34;1;1;
36513;PMS5003;74739;46.796;9.824;2024-02-26T06:33:01;1;1;
36513;PMS5003;74739;46.796;9.824;2024-02-26T06:35:28;1;1;
36513;PMS5003;74739;46.796;9.824;2024-02-26T06:37:55;3;3;
36513;PMS5003;74739;46.796;9.824;2024-02-26T06:40:22;1;1;
36513;PMS5003;74739;46.796;9.824;2024-02-26T06:42:49;1;1;
36513;PMS5003;74739;46.796;9.824;2024-02-26T06:45:17;0;0;
36513;PMS5003;74739;46.796;9.824;2024-02-26T06:47:44;3;3;
36513;PMS5003;74739;46.796;9.824;2024-02-26T06:50:12;2;2;
36513;PMS5003;74739;46.796;9.824;2024-02-26T06:52:40;6;6;
36513;PMS5003;74739;46.796;9.824;2024-02-26T06:55:12;8;8;
36513;PMS5003;74739;46.796;9.824;2024-02-26T06:57:44;3;3;
36513;PMS5003;74739;46.796;9.824;2024-02-26T07:00:12;3;3;
36513;PMS5003;74739;46.796;9.824;2024-02-26T07:02:46;2;2;
36513;PMS5003;74739;46.796;9.824;2024-02-26T07:05:14;5;3;
36513;PMS5003;74739;46.796;9.824;2024-02-26T07:07:41;4;2;
36513;PMS5003;74739;46.796;9.824;2024-02-26T07:10:08;6;3;
36513;PMS5003;74739;46.796;9.824;2024-02-26T07:12:36;3;2;
36513;PMS5003;74739;46.796;9.824;2024-02-26T07:15:03;3;2;
36513;PMS5003;74739;46.796;9.824;2024-02-26T07:17:31;3;3;
36513;PMS5003;74739;46.796;9.824;2024-02-26T07:19:58;10;8;
36513;PMS5003;74739;46.796;9.824;2024-02-26T07:22:26;17;15;
36513;PMS5003;74739;46.796;9.824;2024-02-26T07:24:53;8;7;
36513;PMS5003;74739;46.796;9.824;2024-02-26T07:27:20;17;13;
36513;PMS5003;74739;46.796;9.824;2024-02-26T07:29:47;18;17;
36513;PMS5003;74739;46.796;9.824;2024-02-26T07:32:14;13;12;
36513;PMS5003;74739;46.796;9.824;2024-02-26T07:34:41;8;7;
36513;PMS5003;74739;46.796;9.824;2024-02-26T07:37:08;4;4;
36513;PMS5003;74739;46.796;9.824;2024-02-26T07:39:35;3;3;
36513;PMS5003;74739;46.796;9.824;2024-02-26T07:42:02;4;3;
36513;PMS5003;74739;46.796;9.824;2024-02-26T07:44:33;2;2;
36513;PMS5003;74739;46.796;9.824;2024-02-26T07:47:00;5;5;
36513;PMS5003;74739;46.796;9.824;2024-02-26T07:49:26;4;3;
36513;PMS5003;74739;46.796;9.824;2024-02-26T07:51:53;1;1;
36513;PMS5003;74739;46.796;9.824;2024-02-26T07:54:20;4;3;
36513;PMS5003;74739;46.796;9.824;2024-02-26T07:56:47;3;2;
36513;PMS5003;74739;46.796;9.824;2024-02-26T07:59:14;3;3;
36513;PMS5003;74739;46.796;9.824;2024-02-26T08:01:41;7;4;
36513;PMS5003;74739;46.796;9.824;2024-02-26T08:04:08;7;7;
36513;PMS5003;74739;46.796;9.824;2024-02-26T08:06:35;2;2;
36513;PMS5003;74739;46.796;9.824;2024-02-26T08:09:02;3;3;
36513;PMS5003;74739;46.796;9.824;2024-02-26T08:11:34;6;4;
36513;PMS5003;74739;46.796;9.824;2024-02-26T08:14:01;8;6;
36513;PMS5003;74739;46.796;9.824;2024-02-26T08:16:28;4;4;
36513;PMS5003;74739;46.796;9.824;2024-02-26T08:19:00;3;3;
36513;PMS5003;74739;46.796;9.824;2024-02-26T08:21:27;3;3;
36513;PMS5003;74739;46.796;9.824;2024-02-26T08:23:54;4;3;
36513;PMS5003;74739;46.796;9.824;2024-02-26T08:26:21;7;7;
36513;PMS5003;74739;46.796;9.824;2024-02-26T08:28:48;11;11;
36513;PMS5003;74739;46.796;9.824;2024-02-26T08:31:15;8;7;
36513;PMS5003;74739;46.796;9.824;2024-02-26T08:33:42;9;8;
36513;PMS5003;74739;46.796;9.824;2024-02-26T08:36:09;7;6;
36513;PMS5003;74739;46.796;9.824;2024-02-26T08:38:37;4;4;
36513;PMS5003;74739;46.796;9.824;2024-02-26T08:41:04;2;2;
36513;PMS5003;74739;46.796;9.824;2024-02-26T08:43:31;3;3;
36513;PMS5003;74739;46.796;9.824;2024-02-26T08:45:58;2;2;
36513;PMS5003;74739;46.796;9.824;2024-02-26T08:48:25;4;4;
36513;PMS5003;74739;46.796;9.824;2024-02-26T08:50:52;6;4;
36513;PMS5003;74739;46.796;9.824;2024-02-26T08:53:19;3;3;
36513;PMS5003;74739;46.796;9.824;2024-02-26T08:55:47;4;4;
36513;PMS5003;74739;46.796;9.824;2024-02-26T08:58:13;5;4;
36513;PMS5003;74739;46.796;9.824;2024-02-26T09:00:40;6;6;
36513;PMS5003;74739;46.796;9.824;2024-02-26T09:03:07;3;2;
36513;PMS5003;74739;46.796;9.824;2024-02-26T09:05:34;2;2;
36513;PMS5003;74739;46.796;9.824;2024-02-26T09:08:01;2;2;
36513;PMS5003;74739;46.796;9.824;2024-02-26T09:10:28;3;2;
36513;PMS5003;74739;46.796;9.824;2024-02-26T09:12:55;3;3;
36513;PMS5003;74739;46.796;9.824;2024-02-26T09:15:23;4;4;
36513;PMS5003;74739;46.796;9.824;2024-02-26T09:17:50;4;4;
36513;PMS5003;74739;46.796;9.824;2024-02-26T09:20:17;2;2;
36513;PMS5003;74739;46.796;9.824;2024-02-26T09:22:45;2;2;
36513;PMS5003;74739;46.796;9.824;2024-02-26T09:25:13;1;1;
36513;PMS5003;74739;46.796;9.824;2024-02-26T09:27:39;2;1;
36513;PMS5003;74739;46.796;9.824;2024-02-26T09:30:07;1;1;
36513;PMS5003;74739;46.796;9.824;2024-02-26T09:32:35;2;1;
36513;PMS5003;74739;46.796;9.824;2024-02-26T09:35:02;3;2;
36513;PMS5003;74739;46.796;9.824;2024-02-26T09:37:29;2;2;
36513;PMS5003;74739;46.796;9.824;2024-02-26T09:39:56;2;2;
36513;PMS5003;74739;46.796;9.824;2024-02-26T09:42:23;1;1;
36513;PMS5003;74739;46.796;9.824;2024-02-26T09:44:53;16;16;
36513;PMS5003;74739;46.796;9.824;2024-02-26T09:47:21;8;8;
36513;PMS5003;74739;46.796;9.824;2024-02-26T09:49:52;3;3;
36513;PMS5003;74739;46.796;9.824;2024-02-26T09:52:22;3;2;
36513;PMS5003;74739;46.796;9.824;2024-02-26T09:54:51;2;1;
36513;PMS5003;74739;46.796;9.824;2024-02-26T09:57:19;0;0;
36513;PMS5003;74739;46.796;9.824;2024-02-26T09:59:47;0;0;
36513;PMS5003;74739;46.796;9.824;2024-02-26T10:02:16;0;0;
36513;PMS5003;74739;46.796;9.824;2024-02-26T10:04:47;0;0;
36513;PMS5003;74739;46.796;9.824;2024-02-26T10:07:15;0;0;
36513;PMS5003;74739;46.796;9.824;2024-02-26T10:09:42;0;0;
36513;PMS5003;74739;46.796;9.824;2024-02-26T10:12:10;0;0;
36513;PMS5003;74739;46.796;9.824;2024-02-26T10:14:38;0;0;
36513;PMS5003;74739;46.796;9.824;2024-02-26T10:17:06;0;0;
36513;PMS5003;74739;46.796;9.824;2024-02-26T10:19:33;0;0;
36513;PMS5003;74739;46.796;9.824;2024-02-26T10:22:00;0;0;
36513;PMS5003;74739;46.796;9.824;2024-02-26T10:24:28;0;0;
36513;PMS5003;74739;46.796;9.824;2024-02-26T10:26:57;0;0;
36513;PMS5003;74739;46.796;9.824;2024-02-26T10:29:24;0;0;
36513;PMS5003;74739;46.796;9.824;2024-02-26T10:31:52;0;0;
36513;PMS5003;74739;46.796;9.824;2024-02-26T10:34:18;0;0;
36513;PMS5003;74739;46.796;9.824;2024-02-26T10:36:46;0;0;
36513;PMS5003;74739;46.796;9.824;2024-02-26T10:39:13;0;0;
36513;PMS5003;74739;46.796;9.824;2024-02-26T10:41:40;0;0;
36513;PMS5003;74739;46.796;9.824;2024-02-26T10:44:08;0;0;
36513;PMS5003;74739;46.796;9.824;2024-02-26T10:46:36;0;0;
36513;PMS5003;74739;46.796;9.824;2024-02-26T10:49:03;0;0;
36513;PMS5003;74739;46.796;9.824;2024-02-26T10:51:31;21;21;
36513;PMS5003;74739;46.796;9.824;2024-02-26T10:54:03;13;13;
36513;PMS5003;74739;46.796;9.824;2024-02-26T10:56:33;3;3;
36513;PMS5003;74739;46.796;9.824;2024-02-26T10:59:00;2;1;
36513;PMS5003;74739;46.796;9.824;2024-02-26T11:01:28;0;0;
36513;PMS5003;74739;46.796;9.824;2024-02-26T11:03:56;2;1;
36513;PMS5003;74739;46.796;9.824;2024-02-26T11:06:26;2;1;
36513;PMS5003;74739;46.796;9.824;2024-02-26T11:08:53;1;1;
36513;PMS5003;74739;46.796;9.824;2024-02-26T11:11:21;0;0;
36513;PMS5003;74739;46.796;9.824;2024-02-26T11:13:49;17;17;
36513;PMS5003;74739;46.796;9.824;2024-02-26T11:16:20;34;33;
36513;PMS5003;74739;46.796;9.824;2024-02-26T11:18:48;9;9;
36513;PMS5003;74739;46.796;9.824;2024-02-26T11:21:16;18;18;
36513;PMS5003;74739;46.796;9.824;2024-02-26T11:23:45;22;22;
36513;PMS5003;74739;46.796;9.824;2024-02-26T11:26:13;22;22;
36513;PMS5003;74739;46.796;9.824;2024-02-26T11:28:43;0;0;
36513;PMS5003;74739;46.796;9.824;2024-02-26T11:31:12;0;0;
36513;PMS5003;74739;46.796;9.824;2024-02-26T11:33:40;0;0;
36513;PMS5003;74739;46.796;9.824;2024-02-26T11:36:08;0;0;
36513;PMS5003;74739;46.796;9.824;2024-02-26T11:38:35;0;0;
36513;PMS5003;74739;46.796;9.824;2024-02-26T11:41:03;0;0;
36513;PMS5003;74739;46.796;9.824;2024-02-26T11:44:03;0;0;
36513;PMS5003;74739;46.796;9.824;2024-02-26T11:46:30;0;0;
36513;PMS5003;74739;46.796;9.824;2024-02-26T11:48:59;0;0;
36513;PMS5003;74739;46.796;9.824;2024-02-26T11:51:31;0;0;
36513;PMS5003;74739;46.796;9.824;2024-02-26T11:54:01;14;14;
36513;PMS5003;74739;46.796;9.824;2024-02-26T11:56:27;17;17;
36513;PMS5003;74739;46.796;9.824;2024-02-26T11:58:57;12;12;
36513;PMS5003;74739;46.796;9.824;2024-02-26T12:01:56;4;4;
36513;PMS5003;74739;46.796;9.824;2024-02-26T12:04:24;6;6;
36513;PMS5003;74739;46.796;9.824;2024-02-26T12:06:54;10;10;
36513;PMS5003;74739;46.796;9.824;2024-02-26T12:09:31;10;10;
36513;PMS5003;74739;46.796;9.824;2024-02-26T12:11:59;12;12;
36513;PMS5003;74739;46.796;9.824;2024-02-26T12:14:27;15;15;
36513;PMS5003;74739;46.796;9.824;2024-02-26T12:16:54;1;1;
36513;PMS5003;74739;46.796;9.824;2024-02-26T12:19:22;0;0;
36513;PMS5003;74739;46.796;9.824;2024-02-26T12:21:51;1;1;
36513;PMS5003;74739;46.796;9.824;2024-02-26T12:24:18;0;0;
36513;PMS5003;74739;46.796;9.824;2024-02-26T12:26:46;0;0;
36513;PMS5003;74739;46.796;9.824;2024-02-26T12:29:13;0;0;
36513;PMS5003;74739;46.796;9.824;2024-02-26T12:31:47;0;0;
36513;PMS5003;74739;46.796;9.824;2024-02-26T12:34:15;1;0;
36513;PMS5003;74739;46.796;9.824;2024-02-26T12:36:42;1;1;
36513;PMS5003;74739;46.796;9.824;2024-02-26T12:39:09;4;4;
36513;PMS5003;74739;46.796;9.824;2024-02-26T12:41:37;2;2;
36513;PMS5003;74739;46.796;9.824;2024-02-26T12:44:05;3;3;
36513;PMS5003;74739;46.796;9.824;2024-02-26T12:46:33;12;12;
36513;PMS5003;74739;46.796;9.824;2024-02-26T12:49:00;7;7;
36513;PMS5003;74739;46.796;9.824;2024-02-26T12:51:27;5;5;
36513;PMS5003;74739;46.796;9.824;2024-02-26T12:53:55;3;3;
36513;PMS5003;74739;46.796;9.824;2024-02-26T12:56:24;0;0;
36513;PMS5003;74739;46.796;9.824;2024-02-26T12:58:53;0;0;
36513;PMS5003;74739;46.796;9.824;2024-02-26T13:01:22;1;0;
36513;PMS5003;74739;46.796;9.824;2024-02-26T13:03:51;0;0;
36513;PMS5003;74739;46.796;9.824;2024-02-26T13:06:19;1;1;
36513;PMS5003;74739;46.796;9.824;2024-02-26T13:08:47;0;0;
36513;PMS5003;74739;46.796;9.824;2024-02-26T13:11:14;0;0;
36513;PMS5003;74739;46.796;9.824;2024-02-26T13:13:42;0;0;
36513;PMS5003;74739;46.796;9.824;2024-02-26T13:16:09;0;0;
36513;PMS5003;74739;46.796;9.824;2024-02-26T13:18:40;0;0;
36513;PMS5003;74739;46.796;9.824;2024-02-26T13:21:08;1;1;
36513;PMS5003;74739;46.796;9.824;2024-02-26T13:23:36;0;0;
36513;PMS5003;74739;46.796;9.824;2024-02-26T13:26:04;0;0;
36513;PMS5003;74739;46.796;9.824;2024-02-26T13:28:31;0;0;
36513;PMS5003;74739;46.796;9.824;2024-02-26T13:30:59;0;0;
36513;PMS5003;74739;46.796;9.824;2024-02-26T13:33:28;0;0;
36513;PMS5003;74739;46.796;9.824;2024-02-26T13:35:55;0;0;
36513;PMS5003;74739;46.796;9.824;2024-02-26T13:38:23;2;2;
36513;PMS5003;74739;46.796;9.824;2024-02-26T13:40:51;2;2;
36513;PMS5003;74739;46.796;9.824;2024-02-26T13:43:18;0;0;
36513;PMS5003;74739;46.796;9.824;2024-02-26T13:45:46;0;0;
36513;PMS5003;74739;46.796;9.824;2024-02-26T13:48:14;0;0;
36513;PMS5003;74739;46.796;9.824;2024-02-26T13:50:41;0;0;
36513;PMS5003;74739;46.796;9.824;2024-02-26T13:53:09;0;0;
36513;PMS5003;74739;46.796;9.824;2024-02-26T13:55:36;0;0;
36513;PMS5003;74739;46.796;9.824;2024-02-26T13:58:03;2;2;
36513;PMS5003;74739;46.796;9.824;2024-02-26T14:00:30;0;0;
36513;PMS5003;74739;46.796;9.824;2024-02-26T14:02:58;0;0;
36513;PMS5003;74739;46.796;9.824;2024-02-26T14:05:25;0;0;
36513;PMS5003;74739;46.796;9.824;2024-02-26T14:07:53;0;0;
36513;PMS5003;74739;46.796;9.824;2024-02-26T14:10:21;0;0;
36513;PMS5003;74739;46.796;9.824;2024-02-26T14:12:49;0;0;
36513;PMS5003;74739;46.796;9.824;2024-02-26T14:15:16;0;0;
36513;PMS5003;74739;46.796;9.824;2024-02-26T14:17:42;0;0;
36513;PMS5003;74739;46.796;9.824;2024-02-26T14:20:09;0;0;
36513;PMS5003;74739;46.796;9.824;2024-02-26T14:22:37;0;0;
36513;PMS5003;74739;46.796;9.824;2024-02-26T14:25:04;0;0;
36513;PMS5003;74739;46.796;9.824;2024-02-26T14:27:31;0;0;
36513;PMS5003;74739;46.796;9.824;2024-02-26T14:29:58;0;0;
36513;PMS5003;74739;46.796;9.824;2024-02-26T14:32:24;0;0;
36513;PMS5003;74739;46.796;9.824;2024-02-26T14:34:52;0;0;
36513;PMS5003;74739;46.796;9.824;2024-02-26T14:37:19;0;0;
36513;PMS5003;74739;46.796;9.824;2024-02-26T14:39:46;0;0;
36513;PMS5003;74739;46.796;9.824;2024-02-26T14:42:12;0;0;
36513;PMS5003;74739;46.796;9.824;2024-02-26T14:44:39;0;0;
36513;PMS5003;74739;46.796;9.824;2024-02-26T14:47:06;0;0;
36513;PMS5003;74739;46.796;9.824;2024-02-26T14:49:32;0;0;
36513;PMS5003;74739;46.796;9.824;2024-02-26T14:51:59;0;0;
36513;PMS5003;74739;46.796;9.824;2024-02-26T14:54:27;0;0;
36513;PMS5003;74739;46.796;9.824;2024-02-26T14:56:53;0;0;
36513;PMS5003;74739;46.796;9.824;2024-02-26T14:59:20;0;0;
36513;PMS5003;74739;46.796;9.824;2024-02-26T15:01:47;0;0;
36513;PMS5003;74739;46.796;9.824;2024-02-26T15:04:14;0;0;
36513;PMS5003;74739;46.796;9.824;2024-02-26T15:06:41;0;0;
36513;PMS5003;74739;46.796;9.824;2024-02-26T15:09:08;0;0;
36513;PMS5003;74739;46.796;9.824;2024-02-26T15:11:37;0;0;
36513;PMS5003;74739;46.796;9.824;2024-02-26T15:14:04;1;0;
36513;PMS5003;74739;46.796;9.824;2024-02-26T15:16:31;0;0;
36513;PMS5003;74739;46.796;9.824;2024-02-26T15:18:58;0;0;
36513;PMS5003;74739;46.796;9.824;2024-02-26T15:21:25;0;0;
36513;PMS5003;74739;46.796;9.824;2024-02-26T15:23:51;0;0;
36513;PMS5003;74739;46.796;9.824;2024-02-26T15:26:18;0;0;
36513;PMS5003;74739;46.796;9.824;2024-02-26T15:28:45;0;0;
36513;PMS5003;74739;46.796;9.824;2024-02-26T15:31:13;0;0;
36513;PMS5003;74739;46.796;9.824;2024-02-26T15:33:39;0;0;
36513;PMS5003;74739;46.796;9.824;2024-02-26T15:36:07;0;0;
36513;PMS5003;74739;46.796;9.824;2024-02-26T15:38:35;0;0;
36513;PMS5003;74739;46.796;9.824;2024-02-26T15:41:02;0;0;
36513;PMS5003;74739;46.796;9.824;2024-02-26T15:43:37;0;0;
36513;PMS5003;74739;46.796;9.824;2024-02-26T15:46:04;0;0;
36513;PMS5003;74739;46.796;9.824;2024-02-26T15:48:30;0;0;
36513;PMS5003;74739;46.796;9.824;2024-02-26T15:50:57;0;0;
36513;PMS5003;74739;46.796;9.824;2024-02-26T15:53:25;0;0;
36513;PMS5003;74739;46.796;9.824;2024-02-26T15:55:51;0;0;
36513;PMS5003;74739;46.796;9.824;2024-02-26T15:58:19;0;0;
36513;PMS5003;74739;46.796;9.824;2024-02-26T16:00:46;0;0;
36513;PMS5003;74739;46.796;9.824;2024-02-26T16:03:14;1;1;
36513;PMS5003;74739;46.796;9.824;2024-02-26T16:05:40;0;0;
36513;PMS5003;74739;46.796;9.824;2024-02-26T16:08:08;1;0;
36513;PMS5003;74739;46.796;9.824;2024-02-26T16:10:40;0;0;
36513;PMS5003;74739;46.796;9.824;2024-02-26T16:13:07;0;0;
36513;PMS5003;74739;46.796;9.824;2024-02-26T16:15:34;0;0;
36513;PMS5003;74739;46.796;9.824;2024-02-26T16:18:00;0;0;
36513;PMS5003;74739;46.796;9.824;2024-02-26T16:20:27;0;0;
36513;PMS5003;74739;46.796;9.824;2024-02-26T16:22:54;2;1;
36513;PMS5003;74739;46.796;9.824;2024-02-26T16:25:22;0;0;
36513;PMS5003;74739;46.796;9.824;2024-02-26T16:27:49;0;0;
36513;PMS5003;74739;46.796;9.824;2024-02-26T16:30:16;0;0;
36513;PMS5003;74739;46.796;9.824;2024-02-26T16:32:43;0;0;
36513;PMS5003;74739;46.796;9.824;2024-02-26T16:35:10;0;0;
36513;PMS5003;74739;46.796;9.824;2024-02-26T16:37:38;0;0;
36513;PMS5003;74739;46.796;9.824;2024-02-26T16:40:06;0;0;
36513;PMS5003;74739;46.796;9.824;2024-02-26T16:42:34;0;0;
36513;PMS5003;74739;46.796;9.824;2024-02-26T16:45:02;0;0;
36513;PMS5003;74739;46.796;9.824;2024-02-26T16:47:29;0;0;
36513;PMS5003;74739;46.796;9.824;2024-02-26T16:49:57;0;0;
36513;PMS5003;74739;46.796;9.824;2024-02-26T16:52:24;0;0;